sensor_id;sensor_type;location;lat;lon;timestamp;P1;durP1;ratioP1;P2;durP2;ratioP2
52494;SDS011;38405;53.212;5.660;2022-08-18T00:02:02;19.30;;;7.45;;
52494;SDS011;38405;53.212;5.660;2022-08-18T00:04:31;14.05;;;6.60;;
52494;SDS011;38405;53.212;5.660;2022-08-18T00:07:03;20.15;;;8.55;;
52494;SDS011;38405;53.212;5.660;2022-08-18T00:09:30;20.80;;;7.10;;
52494;SDS011;38405;53.212;5.660;2022-08-18T00:11:57;15.13;;;7.53;;
52494;SDS011;38405;53.212;5.660;2022-08-18T00:14:22;13.88;;;7.03;;
52494;SDS011;38405;53.212;5.660;2022-08-18T00:16:49;18.67;;;8.18;;
52494;SDS011;38405;53.212;5.660;2022-08-18T00:19:16;17.27;;;7.10;;
52494;SDS011;38405;53.212;5.660;2022-08-18T00:21:42;14.65;;;6.78;;
52494;SDS011;38405;53.212;5.660;2022-08-18T00:24:08;21.08;;;7.75;;
52494;SDS011;38405;53.212;5.660;2022-08-18T00:26:33;19.30;;;7.45;;
52494;SDS011;38405;53.212;5.660;2022-08-18T00:28:59;12.75;;;6.10;;
52494;SDS011;38405;53.212;5.660;2022-08-18T00:31:25;14.65;;;6.82;;
52494;SDS011;38405;53.212;5.660;2022-08-18T00:33:50;20.35;;;7.18;;
52494;SDS011;38405;53.212;5.660;2022-08-18T00:36:16;17.08;;;6.93;;
52494;SDS011;38405;53.212;5.660;2022-08-18T00:38:42;17.70;;;6.40;;
52494;SDS011;38405;53.212;5.660;2022-08-18T00:41:07;17.83;;;6.82;;
52494;SDS011;38405;53.212;5.660;2022-08-18T00:45:58;18.27;;;6.60;;
52494;SDS011;38405;53.212;5.660;2022-08-18T00:48:24;22.90;;;6.13;;
52494;SDS011;38405;53.212;5.660;2022-08-18T00:50:55;22.30;;;6.45;;
52494;SDS011;38405;53.212;5.660;2022-08-18T00:56:04;16.25;;;6.63;;
52494;SDS011;38405;53.212;5.660;2022-08-18T00:58:35;14.13;;;6.50;;
52494;SDS011;38405;53.212;5.660;2022-08-18T01:01:05;12.82;;;5.85;;
52494;SDS011;38405;53.212;5.660;2022-08-18T01:03:33;18.10;;;7.25;;
52494;SDS011;38405;53.212;5.660;2022-08-18T01:08:52;13.05;;;6.93;;
52494;SDS011;38405;53.212;5.660;2022-08-18T01:11:18;15.60;;;6.88;;
52494;SDS011;38405;53.212;5.660;2022-08-18T01:13:44;17.77;;;6.63;;
52494;SDS011;38405;53.212;5.660;2022-08-18T01:16:09;14.52;;;6.78;;
52494;SDS011;38405;53.212;5.660;2022-08-18T01:18:54;14.25;;;6.72;;
52494;SDS011;38405;53.212;5.660;2022-08-18T01:21:40;16.95;;;6.93;;
52494;SDS011;38405;53.212;5.660;2022-08-18T01:24:27;13.50;;;7.07;;
52494;SDS011;38405;53.212;5.660;2022-08-18T01:27:26;17.13;;;7.35;;
52494;SDS011;38405;53.212;5.660;2022-08-18T01:29:55;14.45;;;6.75;;
52494;SDS011;38405;53.212;5.660;2022-08-18T01:32:21;15.57;;;7.35;;
52494;SDS011;38405;53.212;5.660;2022-08-18T01:34:48;16.70;;;6.95;;
52494;SDS011;38405;53.212;5.660;2022-08-18T01:37:19;15.35;;;6.97;;
52494;SDS011;38405;53.212;5.660;2022-08-18T01:39:46;18.45;;;7.20;;
52494;SDS011;38405;53.212;5.660;2022-08-18T01:42:13;21.42;;;7.40;;
52494;SDS011;38405;53.212;5.660;2022-08-18T01:44:41;18.20;;;7.40;;
52494;SDS011;38405;53.212;5.660;2022-08-18T01:47:08;12.70;;;6.65;;
52494;SDS011;38405;53.212;5.660;2022-08-18T01:49:36;16.95;;;7.78;;
52494;SDS011;38405;53.212;5.660;2022-08-18T01:52:07;20.35;;;7.50;;
52494;SDS011;38405;53.212;5.660;2022-08-18T01:54:33;14.35;;;7.28;;
52494;SDS011;38405;53.212;5.660;2022-08-18T01:56:59;16.58;;;7.13;;
52494;SDS011;38405;53.212;5.660;2022-08-18T01:59:24;16.38;;;7.40;;
52494;SDS011;38405;53.212;5.660;2022-08-18T02:01:50;11.40;;;7.18;;
52494;SDS011;38405;53.212;5.660;2022-08-18T02:04:18;18.95;;;7.78;;
52494;SDS011;38405;53.212;5.660;2022-08-18T02:06:48;16.98;;;7.82;;
52494;SDS011;38405;53.212;5.660;2022-08-18T02:09:14;12.23;;;7.28;;
52494;SDS011;38405;53.212;5.660;2022-08-18T02:11:40;22.50;;;7.78;;
52494;SDS011;38405;53.212;5.660;2022-08-18T02:14:06;18.20;;;8.93;;
52494;SDS011;38405;53.212;5.660;2022-08-18T02:16:31;25.23;;;8.45;;
52494;SDS011;38405;53.212;5.660;2022-08-18T02:18:57;19.77;;;7.22;;
52494;SDS011;38405;53.212;5.660;2022-08-18T02:21:23;15.10;;;7.70;;
52494;SDS011;38405;53.212;5.660;2022-08-18T02:23:49;19.33;;;8.60;;
52494;SDS011;38405;53.212;5.660;2022-08-18T02:26:15;21.95;;;8.98;;
52494;SDS011;38405;53.212;5.660;2022-08-18T02:28:42;14.35;;;8.23;;
52494;SDS011;38405;53.212;5.660;2022-08-18T02:31:10;17.08;;;8.50;;
52494;SDS011;38405;53.212;5.660;2022-08-18T02:33:38;14.98;;;8.05;;
52494;SDS011;38405;53.212;5.660;2022-08-18T02:36:04;16.42;;;9.00;;
52494;SDS011;38405;53.212;5.660;2022-08-18T02:38:31;16.83;;;8.48;;
52494;SDS011;38405;53.212;5.660;2022-08-18T02:40:58;17.25;;;8.32;;
52494;SDS011;38405;53.212;5.660;2022-08-18T02:43:27;23.85;;;8.68;;
52494;SDS011;38405;53.212;5.660;2022-08-18T02:45:54;27.48;;;8.50;;
52494;SDS011;38405;53.212;5.660;2022-08-18T02:48:21;20.42;;;8.23;;
52494;SDS011;38405;53.212;5.660;2022-08-18T02:51:02;12.88;;;7.90;;
52494;SDS011;38405;53.212;5.660;2022-08-18T02:53:35;18.75;;;7.53;;
52494;SDS011;38405;53.212;5.660;2022-08-18T02:56:05;18.00;;;7.97;;
52494;SDS011;38405;53.212;5.660;2022-08-18T02:58:50;20.02;;;8.88;;
52494;SDS011;38405;53.212;5.660;2022-08-18T03:01:21;21.65;;;8.57;;
52494;SDS011;38405;53.212;5.660;2022-08-18T03:03:50;15.03;;;7.93;;
52494;SDS011;38405;53.212;5.660;2022-08-18T03:06:16;18.55;;;8.00;;
52494;SDS011;38405;53.212;5.660;2022-08-18T03:08:43;18.23;;;7.95;;
52494;SDS011;38405;53.212;5.660;2022-08-18T03:11:13;12.65;;;7.28;;
52494;SDS011;38405;53.212;5.660;2022-08-18T03:13:43;21.55;;;8.30;;
52494;SDS011;38405;53.212;5.660;2022-08-18T03:16:09;19.60;;;8.88;;
52494;SDS011;38405;53.212;5.660;2022-08-18T03:18:35;23.15;;;8.82;;
52494;SDS011;38405;53.212;5.660;2022-08-18T03:21:06;18.35;;;8.52;;
52494;SDS011;38405;53.212;5.660;2022-08-18T03:23:34;17.60;;;7.47;;
52494;SDS011;38405;53.212;5.660;2022-08-18T03:26:00;14.80;;;8.18;;
52494;SDS011;38405;53.212;5.660;2022-08-18T03:28:26;21.40;;;7.63;;
52494;SDS011;38405;53.212;5.660;2022-08-18T03:30:52;16.85;;;7.45;;
52494;SDS011;38405;53.212;5.660;2022-08-18T03:33:18;15.35;;;8.40;;
52494;SDS011;38405;53.212;5.660;2022-08-18T03:35:44;13.48;;;8.35;;
52494;SDS011;38405;53.212;5.660;2022-08-18T03:38:10;20.67;;;8.60;;
52494;SDS011;38405;53.212;5.660;2022-08-18T03:40:35;27.63;;;9.00;;
52494;SDS011;38405;53.212;5.660;2022-08-18T03:43:02;16.13;;;8.02;;
52494;SDS011;38405;53.212;5.660;2022-08-18T03:45:33;15.43;;;7.55;;
52494;SDS011;38405;53.212;5.660;2022-08-18T03:47:59;17.77;;;7.15;;
52494;SDS011;38405;53.212;5.660;2022-08-18T03:50:26;23.88;;;7.28;;
52494;SDS011;38405;53.212;5.660;2022-08-18T03:52:53;16.17;;;7.68;;
52494;SDS011;38405;53.212;5.660;2022-08-18T03:55:23;15.55;;;7.10;;
52494;SDS011;38405;53.212;5.660;2022-08-18T03:57:52;15.48;;;6.60;;
52494;SDS011;38405;53.212;5.660;2022-08-18T04:00:19;14.07;;;6.18;;
52494;SDS011;38405;53.212;5.660;2022-08-18T04:02:47;11.02;;;6.60;;
52494;SDS011;38405;53.212;5.660;2022-08-18T04:05:13;14.65;;;6.90;;
52494;SDS011;38405;53.212;5.660;2022-08-18T04:07:38;14.10;;;7.15;;
52494;SDS011;38405;53.212;5.660;2022-08-18T04:10:04;15.02;;;7.78;;
52494;SDS011;38405;53.212;5.660;2022-08-18T04:12:30;11.48;;;7.35;;
52494;SDS011;38405;53.212;5.660;2022-08-18T04:14:56;16.08;;;7.72;;
52494;SDS011;38405;53.212;5.660;2022-08-18T04:17:22;16.60;;;7.25;;
52494;SDS011;38405;53.212;5.660;2022-08-18T04:19:49;16.05;;;7.28;;
52494;SDS011;38405;53.212;5.660;2022-08-18T04:22:19;13.45;;;7.10;;
52494;SDS011;38405;53.212;5.660;2022-08-18T04:24:45;17.52;;;7.00;;
52494;SDS011;38405;53.212;5.660;2022-08-18T04:27:11;15.50;;;7.32;;
52494;SDS011;38405;53.212;5.660;2022-08-18T04:29:36;11.27;;;6.60;;
52494;SDS011;38405;53.212;5.660;2022-08-18T04:32:02;15.90;;;7.35;;
52494;SDS011;38405;53.212;5.660;2022-08-18T04:34:29;19.25;;;7.78;;
52494;SDS011;38405;53.212;5.660;2022-08-18T04:36:55;13.77;;;6.28;;
52494;SDS011;38405;53.212;5.660;2022-08-18T04:39:21;9.95;;;5.97;;
52494;SDS011;38405;53.212;5.660;2022-08-18T04:41:48;15.00;;;6.45;;
52494;SDS011;38405;53.212;5.660;2022-08-18T04:44:14;11.50;;;5.18;;
52494;SDS011;38405;53.212;5.660;2022-08-18T04:46:45;13.43;;;5.43;;
52494;SDS011;38405;53.212;5.660;2022-08-18T04:49:17;14.77;;;5.60;;
52494;SDS011;38405;53.212;5.660;2022-08-18T04:51:47;20.70;;;5.97;;
52494;SDS011;38405;53.212;5.660;2022-08-18T04:54:33;17.50;;;4.93;;
52494;SDS011;38405;53.212;5.660;2022-08-18T04:57:06;15.73;;;4.75;;
52494;SDS011;38405;53.212;5.660;2022-08-18T04:59:38;12.40;;;5.03;;
52494;SDS011;38405;53.212;5.660;2022-08-18T05:02:08;13.32;;;4.47;;
52494;SDS011;38405;53.212;5.660;2022-08-18T05:04:35;19.98;;;5.50;;
52494;SDS011;38405;53.212;5.660;2022-08-18T05:07:03;14.25;;;4.78;;
52494;SDS011;38405;53.212;5.660;2022-08-18T05:09:29;17.15;;;5.30;;
52494;SDS011;38405;53.212;5.660;2022-08-18T05:11:55;8.95;;;4.57;;
52494;SDS011;38405;53.212;5.660;2022-08-18T05:14:21;11.95;;;4.85;;
52494;SDS011;38405;53.212;5.660;2022-08-18T05:16:47;11.23;;;5.05;;
52494;SDS011;38405;53.212;5.660;2022-08-18T05:19:13;14.38;;;4.32;;
52494;SDS011;38405;53.212;5.660;2022-08-18T05:21:40;13.05;;;4.78;;
52494;SDS011;38405;53.212;5.660;2022-08-18T05:24:06;21.15;;;5.32;;
52494;SDS011;38405;53.212;5.660;2022-08-18T05:26:32;13.48;;;5.10;;
52494;SDS011;38405;53.212;5.660;2022-08-18T05:28:58;12.13;;;4.32;;
52494;SDS011;38405;53.212;5.660;2022-08-18T05:31:25;11.55;;;4.35;;
52494;SDS011;38405;53.212;5.660;2022-08-18T05:33:52;13.50;;;4.32;;
52494;SDS011;38405;53.212;5.660;2022-08-18T05:41:43;6.37;;;2.90;;
52494;SDS011;38405;53.212;5.660;2022-08-18T05:44:13;8.43;;;3.10;;
52494;SDS011;38405;53.212;5.660;2022-08-18T05:46:56;8.60;;;3.15;;
52494;SDS011;38405;53.212;5.660;2022-08-18T05:49:26;7.03;;;2.65;;
52494;SDS011;38405;53.212;5.660;2022-08-18T05:51:53;9.10;;;3.15;;
52494;SDS011;38405;53.212;5.660;2022-08-18T05:54:33;12.27;;;3.38;;
52494;SDS011;38405;53.212;5.660;2022-08-18T05:57:22;12.82;;;2.83;;
52494;SDS011;38405;53.212;5.660;2022-08-18T05:59:51;8.32;;;3.75;;
52494;SDS011;38405;53.212;5.660;2022-08-18T06:02:32;5.38;;;2.53;;
52494;SDS011;38405;53.212;5.660;2022-08-18T06:05:23;8.63;;;2.55;;
52494;SDS011;38405;53.212;5.660;2022-08-18T06:07:58;7.03;;;2.63;;
52494;SDS011;38405;53.212;5.660;2022-08-18T06:10:33;7.18;;;3.00;;
52494;SDS011;38405;53.212;5.660;2022-08-18T06:13:00;8.20;;;2.72;;
52494;SDS011;38405;53.212;5.660;2022-08-18T06:18:12;10.38;;;3.03;;
52494;SDS011;38405;53.212;5.660;2022-08-18T06:21:02;11.38;;;3.22;;
52494;SDS011;38405;53.212;5.660;2022-08-18T06:24:04;11.65;;;3.47;;
52494;SDS011;38405;53.212;5.660;2022-08-18T06:26:38;9.23;;;3.45;;
52494;SDS011;38405;53.212;5.660;2022-08-18T06:38:10;8.93;;;3.22;;
52494;SDS011;38405;53.212;5.660;2022-08-18T06:44:03;14.63;;;3.75;;
52494;SDS011;38405;53.212;5.660;2022-08-18T06:46:44;8.48;;;2.85;;
52494;SDS011;38405;53.212;5.660;2022-08-18T06:49:22;8.45;;;2.78;;
52494;SDS011;38405;53.212;5.660;2022-08-18T06:51:58;14.55;;;3.92;;
52494;SDS011;38405;53.212;5.660;2022-08-18T06:54:42;10.85;;;2.88;;
52494;SDS011;38405;53.212;5.660;2022-08-18T06:57:08;7.82;;;3.00;;
52494;SDS011;38405;53.212;5.660;2022-08-18T06:59:56;8.55;;;3.17;;
52494;SDS011;38405;53.212;5.660;2022-08-18T07:03:39;15.77;;;3.28;;
52494;SDS011;38405;53.212;5.660;2022-08-18T07:05:32;6.18;;;3.15;;
52494;SDS011;38405;53.212;5.660;2022-08-18T07:08:02;10.68;;;3.30;;
52494;SDS011;38405;53.212;5.660;2022-08-18T07:10:31;12.07;;;3.30;;
52494;SDS011;38405;53.212;5.660;2022-08-18T07:15:36;12.27;;;3.75;;
52494;SDS011;38405;53.212;5.660;2022-08-18T07:18:03;4.80;;;2.78;;
52494;SDS011;38405;53.212;5.660;2022-08-18T07:20:40;8.30;;;2.97;;
52494;SDS011;38405;53.212;5.660;2022-08-18T07:23:07;6.50;;;2.97;;
52494;SDS011;38405;53.212;5.660;2022-08-18T07:25:44;6.20;;;2.78;;
52494;SDS011;38405;53.212;5.660;2022-08-18T07:31:58;6.47;;;2.35;;
52494;SDS011;38405;53.212;5.660;2022-08-18T07:34:43;7.53;;;2.28;;
52494;SDS011;38405;53.212;5.660;2022-08-18T07:36:59;5.90;;;2.00;;
52494;SDS011;38405;53.212;5.660;2022-08-18T07:39:37;10.00;;;2.78;;
52494;SDS011;38405;53.212;5.660;2022-08-18T07:42:23;5.68;;;2.00;;
52494;SDS011;38405;53.212;5.660;2022-08-18T07:45:18;10.48;;;2.35;;
52494;SDS011;38405;53.212;5.660;2022-08-18T07:48:32;6.32;;;1.70;;
52494;SDS011;38405;53.212;5.660;2022-08-18T07:55:42;5.57;;;1.60;;
52494;SDS011;38405;53.212;5.660;2022-08-18T07:58:31;3.40;;;1.43;;
52494;SDS011;38405;53.212;5.660;2022-08-18T08:06:40;2.60;;;1.45;;
52494;SDS011;38405;53.212;5.660;2022-08-18T08:09:18;3.10;;;1.45;;
52494;SDS011;38405;53.212;5.660;2022-08-18T08:14:59;2.35;;;1.40;;
52494;SDS011;38405;53.212;5.660;2022-08-18T08:17:58;4.13;;;1.30;;
52494;SDS011;38405;53.212;5.660;2022-08-18T08:20:32;6.85;;;1.63;;
52494;SDS011;38405;53.212;5.660;2022-08-18T08:31:02;5.32;;;1.30;;
52494;SDS011;38405;53.212;5.660;2022-08-18T08:33:39;4.55;;;1.38;;
52494;SDS011;38405;53.212;5.660;2022-08-18T08:36:18;4.20;;;1.80;;
52494;SDS011;38405;53.212;5.660;2022-08-18T08:39:08;3.40;;;1.60;;
52494;SDS011;38405;53.212;5.660;2022-08-18T08:41:58;5.20;;;1.30;;
52494;SDS011;38405;53.212;5.660;2022-08-18T08:44:34;2.53;;;1.67;;
52494;SDS011;38405;53.212;5.660;2022-08-18T08:47:09;3.97;;;1.60;;
52494;SDS011;38405;53.212;5.660;2022-08-18T08:52:23;5.03;;;1.50;;
52494;SDS011;38405;53.212;5.660;2022-08-18T08:57:21;3.33;;;1.20;;
52494;SDS011;38405;53.212;5.660;2022-08-18T09:00:04;4.72;;;1.60;;
52494;SDS011;38405;53.212;5.660;2022-08-18T09:05:23;5.82;;;2.00;;
52494;SDS011;38405;53.212;5.660;2022-08-18T09:10:49;3.20;;;1.73;;
52494;SDS011;38405;53.212;5.660;2022-08-18T09:16:32;2.67;;;1.50;;
52494;SDS011;38405;53.212;5.660;2022-08-18T09:24:37;2.97;;;1.40;;
52494;SDS011;38405;53.212;5.660;2022-08-18T09:30:03;4.10;;;1.52;;
52494;SDS011;38405;53.212;5.660;2022-08-18T09:35:33;2.00;;;1.33;;
52494;SDS011;38405;53.212;5.660;2022-08-18T09:38:12;3.17;;;1.60;;
52494;SDS011;38405;53.212;5.660;2022-08-18T09:41:07;3.92;;;1.23;;
52494;SDS011;38405;53.212;5.660;2022-08-18T09:43:59;4.60;;;1.38;;
52494;SDS011;38405;53.212;5.660;2022-08-18T09:51:49;5.30;;;1.30;;
52494;SDS011;38405;53.212;5.660;2022-08-18T09:54:24;4.22;;;1.40;;
52494;SDS011;38405;53.212;5.660;2022-08-18T10:04:52;1.85;;;1.00;;
52494;SDS011;38405;53.212;5.660;2022-08-18T10:07:44;2.75;;;1.40;;
52494;SDS011;38405;53.212;5.660;2022-08-18T10:10:20;5.85;;;1.67;;
52494;SDS011;38405;53.212;5.660;2022-08-18T10:20:55;2.20;;;1.00;;
52494;SDS011;38405;53.212;5.660;2022-08-18T10:29:02;2.72;;;1.40;;
52494;SDS011;38405;53.212;5.660;2022-08-18T10:37:16;2.60;;;1.30;;
52494;SDS011;38405;53.212;5.660;2022-08-18T10:39:50;9.95;;;1.40;;
52494;SDS011;38405;53.212;5.660;2022-08-18T10:42:21;2.45;;;1.10;;
52494;SDS011;38405;53.212;5.660;2022-08-18T10:44:51;2.70;;;1.20;;
52494;SDS011;38405;53.212;5.660;2022-08-18T10:47:27;2.60;;;1.20;;
52494;SDS011;38405;53.212;5.660;2022-08-18T10:49:55;2.45;;;1.25;;
52494;SDS011;38405;53.212;5.660;2022-08-18T10:55:23;3.90;;;1.20;;
52494;SDS011;38405;53.212;5.660;2022-08-18T11:06:46;3.15;;;1.05;;
52494;SDS011;38405;53.212;5.660;2022-08-18T11:09:25;1.98;;;1.00;;
52494;SDS011;38405;53.212;5.660;2022-08-18T11:11:54;1.25;;;0.85;;
52494;SDS011;38405;53.212;5.660;2022-08-18T11:19:57;2.53;;;1.02;;
52494;SDS011;38405;53.212;5.660;2022-08-18T11:22:29;5.30;;;1.30;;
52494;SDS011;38405;53.212;5.660;2022-08-18T11:24:57;2.55;;;1.10;;
52494;SDS011;38405;53.212;5.660;2022-08-18T11:27:24;1.95;;;1.10;;
52494;SDS011;38405;53.212;5.660;2022-08-18T11:29:52;1.00;;;1.00;;
52494;SDS011;38405;53.212;5.660;2022-08-18T11:32:21;1.48;;;0.80;;
52494;SDS011;38405;53.212;5.660;2022-08-18T11:34:59;1.20;;;1.00;;
52494;SDS011;38405;53.212;5.660;2022-08-18T11:37:34;1.08;;;1.00;;
52494;SDS011;38405;53.212;5.660;2022-08-18T11:43:05;2.15;;;1.20;;
52494;SDS011;38405;53.212;5.660;2022-08-18T11:56:10;2.35;;;1.13;;
52494;SDS011;38405;53.212;5.660;2022-08-18T11:58:52;2.05;;;1.13;;
52494;SDS011;38405;53.212;5.660;2022-08-18T12:06:39;1.55;;;1.00;;
52494;SDS011;38405;53.212;5.660;2022-08-18T12:09:06;1.83;;;1.20;;
52494;SDS011;38405;53.212;5.660;2022-08-18T12:11:54;2.35;;;1.10;;
52494;SDS011;38405;53.212;5.660;2022-08-18T12:14:24;4.75;;;1.25;;
52494;SDS011;38405;53.212;5.660;2022-08-18T12:16:51;2.40;;;1.17;;
52494;SDS011;38405;53.212;5.660;2022-08-18T12:19:17;5.40;;;1.30;;
52494;SDS011;38405;53.212;5.660;2022-08-18T12:21:53;1.98;;;1.30;;
52494;SDS011;38405;53.212;5.660;2022-08-18T12:24:25;3.60;;;1.38;;
52494;SDS011;38405;53.212;5.660;2022-08-18T12:26:57;2.33;;;0.95;;
52494;SDS011;38405;53.212;5.660;2022-08-18T12:29:24;2.97;;;1.23;;
52494;SDS011;38405;53.212;5.660;2022-08-18T12:31:51;2.03;;;1.10;;
52494;SDS011;38405;53.212;5.660;2022-08-18T12:34:19;2.85;;;1.20;;
52494;SDS011;38405;53.212;5.660;2022-08-18T12:36:51;2.05;;;1.08;;
52494;SDS011;38405;53.212;5.660;2022-08-18T12:39:22;2.65;;;1.30;;
52494;SDS011;38405;53.212;5.660;2022-08-18T12:41:48;3.97;;;1.42;;
52494;SDS011;38405;53.212;5.660;2022-08-18T12:44:14;3.75;;;0.98;;
52494;SDS011;38405;53.212;5.660;2022-08-18T12:46:40;2.40;;;1.20;;
52494;SDS011;38405;53.212;5.660;2022-08-18T12:49:09;1.85;;;1.33;;
52494;SDS011;38405;53.212;5.660;2022-08-18T12:51:44;3.47;;;1.27;;
52494;SDS011;38405;53.212;5.660;2022-08-18T12:54:11;1.63;;;1.30;;
52494;SDS011;38405;53.212;5.660;2022-08-18T12:56:37;2.63;;;1.27;;
52494;SDS011;38405;53.212;5.660;2022-08-18T12:59:06;2.38;;;1.30;;
52494;SDS011;38405;53.212;5.660;2022-08-18T13:01:34;3.25;;;1.50;;
52494;SDS011;38405;53.212;5.660;2022-08-18T13:04:01;2.47;;;1.55;;
52494;SDS011;38405;53.212;5.660;2022-08-18T13:06:28;4.03;;;1.90;;
52494;SDS011;38405;53.212;5.660;2022-08-18T13:08:57;1.98;;;1.25;;
52494;SDS011;38405;53.212;5.660;2022-08-18T13:11:23;4.28;;;1.30;;
52494;SDS011;38405;53.212;5.660;2022-08-18T13:13:49;2.53;;;1.30;;
52494;SDS011;38405;53.212;5.660;2022-08-18T13:16:16;2.83;;;1.10;;
52494;SDS011;38405;53.212;5.660;2022-08-18T13:18:42;2.67;;;1.83;;
52494;SDS011;38405;53.212;5.660;2022-08-18T13:21:09;4.15;;;1.63;;
52494;SDS011;38405;53.212;5.660;2022-08-18T13:23:37;2.30;;;1.40;;
52494;SDS011;38405;53.212;5.660;2022-08-18T13:26:04;1.92;;;1.25;;
52494;SDS011;38405;53.212;5.660;2022-08-18T13:28:32;2.92;;;1.30;;
52494;SDS011;38405;53.212;5.660;2022-08-18T13:30:59;2.97;;;1.40;;
52494;SDS011;38405;53.212;5.660;2022-08-18T13:33:26;3.08;;;1.40;;
52494;SDS011;38405;53.212;5.660;2022-08-18T13:35:52;1.88;;;1.25;;
52494;SDS011;38405;53.212;5.660;2022-08-18T13:38:18;2.70;;;1.30;;
52494;SDS011;38405;53.212;5.660;2022-08-18T13:40:47;4.55;;;1.40;;
52494;SDS011;38405;53.212;5.660;2022-08-18T13:43:25;1.98;;;1.10;;
52494;SDS011;38405;53.212;5.660;2022-08-18T13:45:54;2.70;;;1.15;;
52494;SDS011;38405;53.212;5.660;2022-08-18T13:48:20;1.35;;;1.10;;
52494;SDS011;38405;53.212;5.660;2022-08-18T13:50:46;2.17;;;1.35;;
52494;SDS011;38405;53.212;5.660;2022-08-18T13:53:12;1.98;;;1.10;;
52494;SDS011;38405;53.212;5.660;2022-08-18T13:55:40;2.70;;;1.50;;
52494;SDS011;38405;53.212;5.660;2022-08-18T13:58:05;1.95;;;1.10;;
52494;SDS011;38405;53.212;5.660;2022-08-18T14:00:32;2.08;;;1.58;;
52494;SDS011;38405;53.212;5.660;2022-08-18T14:02:58;3.17;;;1.45;;
52494;SDS011;38405;53.212;5.660;2022-08-18T14:05:25;4.25;;;1.13;;
52494;SDS011;38405;53.212;5.660;2022-08-18T14:07:52;2.15;;;1.30;;
52494;SDS011;38405;53.212;5.660;2022-08-18T14:10:17;3.42;;;1.42;;
52494;SDS011;38405;53.212;5.660;2022-08-18T14:12:43;4.30;;;1.73;;
52494;SDS011;38405;53.212;5.660;2022-08-18T14:15:12;3.53;;;1.90;;
52494;SDS011;38405;53.212;5.660;2022-08-18T14:17:39;4.22;;;1.50;;
52494;SDS011;38405;53.212;5.660;2022-08-18T14:20:06;5.28;;;1.50;;
52494;SDS011;38405;53.212;5.660;2022-08-18T14:22:52;3.92;;;1.80;;
52494;SDS011;38405;53.212;5.660;2022-08-18T14:25:38;1.42;;;1.33;;
52494;SDS011;38405;53.212;5.660;2022-08-18T14:28:23;4.40;;;1.48;;
52494;SDS011;38405;53.212;5.660;2022-08-18T14:30:49;3.28;;;1.50;;
52494;SDS011;38405;53.212;5.660;2022-08-18T14:33:16;5.03;;;1.30;;
52494;SDS011;38405;53.212;5.660;2022-08-18T14:35:44;3.17;;;1.40;;
52494;SDS011;38405;53.212;5.660;2022-08-18T14:38:11;2.65;;;1.50;;
52494;SDS011;38405;53.212;5.660;2022-08-18T14:40:39;1.98;;;1.42;;
52494;SDS011;38405;53.212;5.660;2022-08-18T14:43:06;1.73;;;1.20;;
52494;SDS011;38405;53.212;5.660;2022-08-18T14:45:32;3.00;;;1.38;;
52494;SDS011;38405;53.212;5.660;2022-08-18T14:47:58;2.40;;;1.40;;
52494;SDS011;38405;53.212;5.660;2022-08-18T14:50:24;3.22;;;1.40;;
52494;SDS011;38405;53.212;5.660;2022-08-18T14:52:50;1.52;;;1.25;;
52494;SDS011;38405;53.212;5.660;2022-08-18T14:55:16;2.47;;;1.50;;
52494;SDS011;38405;53.212;5.660;2022-08-18T14:57:42;2.60;;;1.38;;
52494;SDS011;38405;53.212;5.660;2022-08-18T15:00:10;3.50;;;1.42;;
52494;SDS011;38405;53.212;5.660;2022-08-18T15:02:43;2.72;;;1.48;;
52494;SDS011;38405;53.212;5.660;2022-08-18T15:05:10;3.10;;;1.67;;
52494;SDS011;38405;53.212;5.660;2022-08-18T15:07:37;2.67;;;1.67;;
52494;SDS011;38405;53.212;5.660;2022-08-18T15:10:07;6.63;;;1.60;;
52494;SDS011;38405;53.212;5.660;2022-08-18T15:12:34;3.63;;;1.50;;
52494;SDS011;38405;53.212;5.660;2022-08-18T15:15:01;1.90;;;1.50;;
52494;SDS011;38405;53.212;5.660;2022-08-18T15:17:29;1.95;;;1.35;;
52494;SDS011;38405;53.212;5.660;2022-08-18T15:19:56;3.72;;;1.40;;
52494;SDS011;38405;53.212;5.660;2022-08-18T15:22:21;2.78;;;1.63;;
52494;SDS011;38405;53.212;5.660;2022-08-18T15:25:06;2.28;;;1.40;;
52494;SDS011;38405;53.212;5.660;2022-08-18T15:27:51;2.10;;;1.33;;
52494;SDS011;38405;53.212;5.660;2022-08-18T15:30:17;4.70;;;1.70;;
52494;SDS011;38405;53.212;5.660;2022-08-18T15:32:44;3.85;;;1.60;;
52494;SDS011;38405;53.212;5.660;2022-08-18T15:35:12;5.18;;;1.85;;
52494;SDS011;38405;53.212;5.660;2022-08-18T15:37:42;1.95;;;1.42;;
52494;SDS011;38405;53.212;5.660;2022-08-18T15:40:19;2.08;;;1.52;;
52494;SDS011;38405;53.212;5.660;2022-08-18T15:42:47;7.57;;;1.77;;
52494;SDS011;38405;53.212;5.660;2022-08-18T15:45:15;3.20;;;1.70;;
52494;SDS011;38405;53.212;5.660;2022-08-18T15:47:43;3.33;;;1.55;;
52494;SDS011;38405;53.212;5.660;2022-08-18T15:50:10;2.83;;;1.42;;
52494;SDS011;38405;53.212;5.660;2022-08-18T15:52:43;4.10;;;1.70;;
52494;SDS011;38405;53.212;5.660;2022-08-18T15:55:20;6.63;;;1.80;;
52494;SDS011;38405;53.212;5.660;2022-08-18T15:57:47;4.85;;;1.75;;
52494;SDS011;38405;53.212;5.660;2022-08-18T16:00:14;4.38;;;1.52;;
52494;SDS011;38405;53.212;5.660;2022-08-18T16:02:52;6.10;;;1.60;;
52494;SDS011;38405;53.212;5.660;2022-08-18T16:05:24;4.13;;;1.67;;
52494;SDS011;38405;53.212;5.660;2022-08-18T16:07:54;3.10;;;1.60;;
52494;SDS011;38405;53.212;5.660;2022-08-18T16:10:22;4.00;;;1.80;;
52494;SDS011;38405;53.212;5.660;2022-08-18T16:12:50;4.72;;;1.95;;
52494;SDS011;38405;53.212;5.660;2022-08-18T16:15:17;2.97;;;1.50;;
52494;SDS011;38405;53.212;5.660;2022-08-18T16:17:44;4.40;;;1.65;;
52494;SDS011;38405;53.212;5.660;2022-08-18T16:20:10;5.18;;;1.80;;
52494;SDS011;38405;53.212;5.660;2022-08-18T16:22:37;3.75;;;1.83;;
52494;SDS011;38405;53.212;5.660;2022-08-18T16:25:04;2.83;;;1.77;;
52494;SDS011;38405;53.212;5.660;2022-08-18T16:27:32;3.10;;;1.67;;
52494;SDS011;38405;53.212;5.660;2022-08-18T16:30:05;3.00;;;1.60;;
52494;SDS011;38405;53.212;5.660;2022-08-18T16:32:31;2.63;;;1.40;;
52494;SDS011;38405;53.212;5.660;2022-08-18T16:34:57;4.15;;;1.42;;
52494;SDS011;38405;53.212;5.660;2022-08-18T16:37:23;2.17;;;1.40;;
52494;SDS011;38405;53.212;5.660;2022-08-18T16:39:49;4.65;;;1.73;;
52494;SDS011;38405;53.212;5.660;2022-08-18T16:42:15;3.97;;;1.77;;
52494;SDS011;38405;53.212;5.660;2022-08-18T16:44:41;4.60;;;1.70;;
52494;SDS011;38405;53.212;5.660;2022-08-18T16:47:07;4.18;;;1.42;;
52494;SDS011;38405;53.212;5.660;2022-08-18T16:49:32;4.13;;;1.83;;
52494;SDS011;38405;53.212;5.660;2022-08-18T16:51:59;4.22;;;1.65;;
52494;SDS011;38405;53.212;5.660;2022-08-18T16:54:29;4.55;;;2.00;;
52494;SDS011;38405;53.212;5.660;2022-08-18T16:56:56;5.95;;;1.73;;
52494;SDS011;38405;53.212;5.660;2022-08-18T16:59:22;5.47;;;1.88;;
52494;SDS011;38405;53.212;5.660;2022-08-18T17:02:06;3.63;;;1.55;;
52494;SDS011;38405;53.212;5.660;2022-08-18T17:04:50;3.55;;;1.80;;
52494;SDS011;38405;53.212;5.660;2022-08-18T17:07:16;3.60;;;1.52;;
52494;SDS011;38405;53.212;5.660;2022-08-18T17:09:42;4.13;;;1.75;;
52494;SDS011;38405;53.212;5.660;2022-08-18T17:12:08;4.60;;;1.55;;
52494;SDS011;38405;53.212;5.660;2022-08-18T17:14:35;5.18;;;1.77;;
52494;SDS011;38405;53.212;5.660;2022-08-18T17:17:01;4.43;;;1.50;;
52494;SDS011;38405;53.212;5.660;2022-08-18T17:19:29;12.75;;;2.00;;
52494;SDS011;38405;53.212;5.660;2022-08-18T17:21:57;6.43;;;1.98;;
52494;SDS011;38405;53.212;5.660;2022-08-18T17:24:24;3.55;;;1.77;;
52494;SDS011;38405;53.212;5.660;2022-08-18T17:35:14;5.28;;;2.20;;
52494;SDS011;38405;53.212;5.660;2022-08-18T17:37:52;4.90;;;2.03;;
52494;SDS011;38405;53.212;5.660;2022-08-18T17:40:57;3.33;;;1.80;;
52494;SDS011;38405;53.212;5.660;2022-08-18T17:43:22;4.78;;;1.55;;